createdAt,value
2023-04-10T04:57:39.573Z,100.00
2023-04-10T05:01:14.256Z,100.00
2023-04-10T05:04:47.602Z,100.00
2023-04-10T05:19:13.773Z,100.00
2023-04-10T05:21:40.650Z,100.00
2023-04-10T05:24:33.228Z,99.92
2023-04-10T05:27:02.760Z,99.30
2023-04-10T05:29:57.117Z,98.85
2023-04-10T05:59:27.120Z,90.63
2023-04-10T06:14:16.770Z,79.05
2023-04-10T08:41:45.686Z,44.55
2023-04-10T10:34:40.060Z,31.92
2023-04-10T10:38:06.940Z,31.58
2023-04-10T11:06:08.604Z,28.42
2023-04-10T11:09:46.934Z,30.32
2023-04-10T11:13:17.596Z,32.19
2023-04-10T11:16:17.117Z,31.45
2023-04-10T11:20:08.268Z,29.41
2023-04-10T11:24:16.342Z,31.54
2023-04-10T11:27:40.588Z,32.36
2023-04-10T11:31:23.514Z,31.68
2023-04-10T11:35:09.568Z,32.43
2023-04-10T11:39:16.510Z,32.64
2023-04-10T11:42:24.183Z,30.11
2023-04-10T11:46:24.819Z,30.88
2023-04-10T11:49:56.019Z,33.25
2023-04-10T11:53:36.014Z,35.31
2023-04-10T11:57:13.150Z,36.60
2023-04-10T12:01:04.096Z,38.92
2023-04-10T12:05:21.307Z,37.80
2023-04-10T12:08:29.437Z,34.03
2023-04-10T12:11:21.916Z,31.08
2023-04-10T12:14:59.170Z,29.94
2023-04-10T12:18:35.018Z,31.42
2023-04-10T12:22:28.727Z,33.08
2023-04-10T12:25:48.132Z,34.07
2023-04-10T13:00:09.293Z,35.85
2023-04-10T13:03:06.576Z,38.89
2023-04-10T13:06:27.439Z,40.92
2023-04-10T13:10:01.107Z,43.16
2023-04-10T13:13:42.068Z,45.92
2023-04-10T13:17:25.416Z,47.62
2023-04-10T13:21:25.346Z,48.72
2023-04-10T13:24:39.919Z,51.05
2023-04-10T13:28:45.425Z,51.98
2023-04-10T13:31:57.354Z,53.34
2023-04-10T13:35:40.462Z,56.20
2023-04-10T13:39:12.027Z,59.60
2023-04-10T13:42:51.472Z,64.47
2023-04-10T13:46:31.167Z,63.64
2023-04-10T13:50:08.448Z,62.39
2023-04-10T13:52:36.208Z,64.25
2023-04-10T13:55:06.493Z,65.10
2023-04-10T13:57:34.846Z,64.49
2023-04-10T14:00:04.274Z,64.45
2023-04-10T14:02:34.170Z,64.29
2023-04-10T14:05:15.369Z,63.69
2023-04-10T14:08:52.428Z,63.77
2023-04-10T14:12:51.616Z,63.50
2023-04-10T14:16:09.394Z,65.45
2023-04-10T14:18:37.637Z,68.77
2023-04-10T14:21:05.738Z,67.39
2023-04-10T14:23:33.473Z,68.20
2023-04-10T14:26:01.454Z,68.59
2023-04-10T14:28:29.295Z,66.76
2023-04-10T14:30:57.077Z,68.50
2023-04-10T14:33:24.965Z,69.23
2023-04-10T14:35:53.592Z,68.15
2023-04-10T14:40:09.955Z,63.69
2023-04-10T14:43:48.751Z,61.34
2023-04-10T14:47:25.918Z,45.73
2023-04-10T14:51:05.534Z,48.13
2023-04-10T14:54:43.331Z,50.75
2023-04-10T14:58:20.005Z,51.93
2023-04-10T15:01:57.957Z,51.86
2023-04-10T15:06:00.883Z,51.38
2023-04-10T15:09:15.316Z,53.14
2023-04-10T15:12:55.327Z,55.50
2023-04-10T15:16:35.311Z,52.76
2023-04-10T15:19:03.199Z,46.23
2023-04-10T15:25:57.878Z,32.36
2023-04-10T15:28:28.226Z,30.34
2023-04-10T15:32:51.054Z,28.70
2023-04-10T15:36:32.408Z,27.02
2023-04-10T15:40:10.688Z,26.34
2023-04-10T15:43:48.625Z,26.11
2023-04-10T15:47:26.889Z,27.51
2023-04-10T15:49:57.220Z,29.05
2023-04-10T15:52:25.350Z,29.74
2023-04-10T15:54:53.095Z,28.97
2023-04-10T15:57:20.941Z,28.94
2023-04-10T15:59:52.789Z,28.90
2023-04-10T16:02:21.111Z,28.72
2023-04-10T16:05:16.289Z,29.90
2023-04-10T16:07:44.166Z,30.74
2023-04-10T16:10:11.962Z,30.86
2023-04-10T16:15:17.123Z,32.25
2023-04-10T16:29:23.437Z,31.68
2023-04-10T16:32:10.798Z,32.20
2023-04-10T16:36:09.171Z,35.28
2023-04-10T16:39:26.296Z,38.20
2023-04-10T16:43:24.873Z,40.81
2023-04-10T16:46:44.392Z,42.77
2023-04-10T16:50:25.610Z,44.61
2023-04-10T16:54:03.925Z,45.94
2023-04-10T16:58:01.763Z,47.13
2023-04-10T17:01:45.761Z,48.32
2023-04-10T17:04:58.270Z,48.45
2023-04-10T17:08:36.899Z,49.01
2023-04-10T17:12:18.676Z,50.47
2023-04-10T17:15:55.382Z,51.88
2023-04-10T17:30:02.139Z,53.65
2023-04-10T17:32:30.491Z,55.59
2023-04-10T17:34:58.444Z,56.44
2023-04-10T17:37:26.525Z,56.87
2023-04-10T17:39:54.722Z,56.50
2023-04-10T17:42:23.347Z,57.42
2023-04-10T17:44:51.409Z,57.06
2023-04-10T17:47:19.169Z,58.50
2023-04-10T17:49:46.965Z,59.35
2023-04-10T17:52:14.824Z,59.86
2023-04-10T17:54:42.824Z,59.75
2023-04-10T17:57:10.644Z,59.77
2023-04-10T17:59:39.512Z,61.01
2023-04-10T18:02:07.767Z,61.70
2023-04-10T18:04:35.932Z,62.79
2023-04-10T18:07:04.663Z,63.99
2023-04-10T18:09:32.630Z,63.83
2023-04-10T18:12:01.611Z,63.56
2023-04-10T18:14:29.380Z,63.28
2023-04-10T18:16:57.585Z,63.11
2023-04-10T18:19:25.590Z,63.51
2023-04-10T18:21:53.691Z,63.93
2023-04-10T18:24:21.844Z,64.25
2023-04-10T18:26:50.118Z,64.21
2023-04-10T18:29:17.896Z,64.05
2023-04-10T18:31:46.966Z,65.17
2023-04-10T18:34:15.164Z,65.85
2023-04-10T18:36:43.262Z,66.11
2023-04-10T18:39:11.438Z,66.70
2023-04-10T18:41:39.614Z,67.08
2023-04-10T18:44:11.384Z,68.07
2023-04-10T18:46:42.722Z,68.73
2023-04-10T18:49:12.564Z,69.17
2023-04-10T18:51:41.905Z,69.32
2023-04-10T18:54:10.021Z,69.35
2023-04-10T18:56:38.883Z,69.95
2023-04-10T18:59:08.219Z,69.73
2023-04-10T19:01:36.760Z,69.24
2023-04-10T19:04:04.764Z,68.98
2023-04-10T19:07:05.128Z,69.05
2023-04-10T19:09:33.841Z,69.68
2023-04-10T19:12:02.366Z,69.89
2023-04-10T19:14:30.210Z,70.01
2023-04-10T19:16:58.353Z,70.43
2023-04-10T19:19:26.183Z,70.94
2023-04-10T19:21:55.095Z,71.31
2023-04-10T19:24:23.151Z,71.79
2023-04-10T19:26:53.612Z,72.01
2023-04-10T19:29:22.435Z,72.27
2023-04-10T19:31:51.294Z,72.74
2023-04-10T19:34:19.605Z,73.06
2023-04-10T19:36:47.765Z,73.34
2023-04-10T19:39:16.412Z,73.72
2023-04-10T19:41:44.167Z,73.01
2023-04-10T19:44:12.233Z,72.86
2023-04-10T19:46:40.465Z,73.05
2023-04-10T19:49:08.254Z,72.58
2023-04-10T19:51:36.370Z,72.52
2023-04-10T19:54:05.642Z,72.59
2023-04-10T19:56:34.927Z,73.25
2023-04-10T19:59:03.002Z,73.93
2023-04-10T20:01:31.061Z,74.14
2023-04-10T20:03:59.483Z,74.62
2023-04-10T20:06:27.494Z,75.01
2023-04-10T20:08:55.731Z,75.42
2023-04-10T20:11:24.938Z,75.43
2023-04-10T20:13:53.027Z,75.70
2023-04-10T20:16:21.017Z,75.59
2023-04-10T20:18:48.803Z,75.55
2023-04-10T20:21:16.680Z,75.85
2023-04-10T20:23:44.426Z,75.92
2023-04-10T20:26:13.300Z,75.94
2023-04-10T20:28:41.075Z,76.74
2023-04-10T20:31:10.875Z,77.11
2023-04-10T20:33:38.696Z,77.30
2023-04-10T20:36:06.910Z,77.80
2023-04-10T20:38:34.742Z,77.90
2023-04-10T20:41:03.083Z,78.32
2023-04-10T20:43:31.108Z,78.56
2023-04-10T20:46:06.775Z,78.80
2023-04-10T20:48:38.291Z,78.89
2023-04-10T20:51:06.442Z,79.19
2023-04-10T20:53:34.170Z,79.44
2023-04-10T20:56:03.575Z,79.71
2023-04-10T20:58:33.342Z,79.64
2023-04-10T21:01:01.274Z,79.74
2023-04-10T21:03:30.242Z,79.73
2023-04-10T21:05:58.031Z,79.97
2023-04-10T21:08:25.931Z,80.44
2023-04-10T21:10:53.654Z,80.43
2023-04-10T21:13:21.484Z,80.73
2023-04-10T21:15:49.626Z,81.60
2023-04-10T21:18:17.447Z,82.93
2023-04-10T21:20:45.240Z,84.37
2023-04-10T21:23:13.043Z,84.43
2023-04-10T21:25:40.696Z,84.98
2023-04-10T21:28:08.427Z,85.50
2023-04-10T21:30:37.020Z,84.73
2023-04-10T21:33:05.902Z,83.79
2023-04-10T21:35:33.637Z,83.71
2023-04-10T21:38:03.911Z,83.51
2023-04-10T21:40:34.374Z,83.61
2023-04-10T21:43:02.852Z,83.46
2023-04-10T21:45:31.546Z,83.56
2023-04-10T21:48:00.442Z,83.73
2023-04-10T21:50:28.795Z,83.79
2023-04-10T21:52:56.689Z,83.76
2023-04-10T21:55:24.551Z,84.14
2023-04-10T21:57:52.271Z,84.47
2023-04-10T22:00:22.538Z,84.22
2023-04-10T22:02:51.032Z,84.04
2023-04-10T22:05:19.117Z,84.40
2023-04-10T22:07:49.196Z,84.87
2023-04-10T22:10:16.973Z,85.56
2023-04-10T22:12:47.631Z,86.40
2023-04-10T22:15:17.230Z,87.25
2023-04-10T22:17:44.886Z,87.62
2023-04-10T22:20:12.738Z,87.90
2023-04-10T22:22:40.715Z,88.39
2023-04-10T22:25:08.519Z,88.32
2023-04-10T22:27:36.222Z,87.70
2023-04-10T22:30:04.755Z,87.38
2023-04-10T22:32:32.598Z,87.36
2023-04-10T22:35:00.720Z,87.48
2023-04-10T22:37:28.488Z,87.88
2023-04-10T22:39:56.376Z,88.51
2023-04-10T22:42:24.217Z,88.54
2023-04-10T22:44:52.101Z,88.69
2023-04-10T22:47:19.944Z,89.24
2023-04-10T22:49:47.641Z,89.63
2023-04-10T22:52:16.416Z,90.32
2023-04-10T22:54:44.156Z,90.95
2023-04-10T22:57:12.008Z,91.18
2023-04-10T22:59:39.792Z,90.88
2023-04-10T23:02:09.768Z,90.80
2023-04-10T23:04:37.767Z,90.90
2023-04-10T23:07:05.802Z,91.21
2023-04-10T23:09:33.583Z,91.20
2023-04-10T23:12:01.901Z,90.85
2023-04-10T23:14:29.622Z,90.97
2023-04-10T23:16:57.463Z,91.26
2023-04-10T23:19:25.285Z,91.56
2023-04-10T23:21:53.776Z,91.88
2023-04-10T23:24:21.544Z,91.81
2023-04-10T23:26:49.259Z,91.73
2023-04-10T23:29:17.211Z,91.46
2023-04-10T23:31:45.024Z,91.64
2023-04-10T23:34:13.061Z,91.92
2023-04-10T23:36:40.822Z,91.83
2023-04-10T23:39:08.752Z,92.06
2023-04-10T23:41:36.554Z,92.36
2023-04-10T23:44:04.380Z,92.54
2023-04-10T23:46:32.189Z,92.60
2023-04-10T23:49:00.530Z,92.78
2023-04-10T23:51:28.294Z,93.20
2023-04-10T23:53:55.988Z,93.14
2023-04-10T23:56:29.159Z,92.98
2023-04-10T23:58:57.156Z,92.90
